LIRQ/FLR METAR and TAF weather

Enter ICAO airport designator
Station Type Date Time Source
LIRQ METAR 2022/06/28 14:50 UTC NOAA

LIRQ 281450Z VRB08KT 9999 -RA FEW035CB BKN070 27/19 Q1011 RERA


Station Type Date Time Source
LIRQ Decoded METAR 2022/06/28 14:50 UTC NOAA

Firenze / Peretola, Italy (LIRQ) 43-48N 011-12E 38M
Jun 28, 2022 - 10:50 AM EDT / 2022.06.28 1450 UTC
Wind: Variable at 9 MPH (8 KT):0
Visibility: greater than 7 mile(s):0
Sky conditions: mostly cloudy
Weather: light rain; Cumulonimbus clouds observed
Temperature: 80 F (27 C)
Dew Point: 66 F (19 C)
Relative Humidity: 61%
Pressure (altimeter): 29.85 in. Hg (1011 hPa)
ob: LIRQ 281450Z VRB08KT 9999 -RA FEW035CB BKN070 27/19 Q1011 RERA
cycle: 15

Station Type Date Time Source
LIRQ TAF 2022/06/28 12:21 UTC NOAA

TAF LIRQ 281100Z 2812/2912 09013KT 9999 SCT060
TEMPO 2813/2817 09018G28KT SHRA
BECMG 2816/2818 VRB05KT
TEMPO 2817/2902 4000 TSRA
BECMG 2910/2912 25010KT

Example: see airport list